Buford, Ohio
Current Conditions -  °F | °C
As of 7:54 AM on Wednesday 26 Nov 2014 (Local Time) from KILN Reporting Station
Overcast Overcast  
Wind Chill: 17°   Ceiling: 1700
Heat Index: 27°   Visibility: 8mi
Dew Point: 23°   Wind: 10mph
Humidity: 85%   Direction: 360°N
Pressure: 30.11"   Gusts: NA
Location:  39.08°N, 83.84°W
Report Text: KILN 261254Z AUTO 36009KT 8SM OVC017 M03/M05 A3011 RMK AO2 SLP223 T10281050
Loading
Personal Weather Stations






























Interactive Weather Map New forecast layout! Learn more

10-Day Weather Forecast

Advertisements
Track Severe Weather on mobile